Bellefonte, Delaware
Current Conditions -  °F | °C
As of 5:51 PM on Tuesday 27 Jan 2015 (Local Time) from KILG Reporting Station
Clear Clear  
Wind Chill: 19°   Ceiling: Unl
Heat Index: 31°   Visibility: 10mi
Dew Point: 11°   Wind: 18mph
Humidity: 43%   Direction: 300°WNW
Pressure: 29.77"   Gusts: NA
Location:  39.772°N, 75.4963°W
Report Text: KILG 272251Z 30016KT 10SM CLR M01/M12 A2977 RMK AO2 SLP082 T10061117
Loading
Personal Weather Stations






























Interactive Weather Map New forecast layout! Learn more

10-Day Weather Forecast

Advertisements
Track Severe Weather on mobile